»·PEaware :: N805RJ KAVX-KPTV

N805RJ :: KAVX-KPTV

FLIGHT INFORMATION

Flight Status: Arrived
Operator: Privately registered:
United States
More flights under this callsign
Pilot: Rickie J. (22768)
Aircraft: CESSNA 172 SKYHAWK
(C172)
More flights by this aircraft type
Origin: KAVX Catalina
United States
Destination: KPTV Porterville Mun
United States
More flights between these airports :: More routes between these airports
Route: PAROL V27 VTU FIM V299 V23 V165 TTE
File this flight plan on PilotEdge
Remarks:
Altitude:
(Current/Filed)
12,500ft
Speed:
(Current/Filed)
120kts
Departed: 04-Jul-20 02:25 PM
Arrived: 04-Jul-20 03:53 PM
Distance/Time
Traveled:
161nm/1:28
Distance/Time
To Go:
Arrived

Flight Plot

Page will automatically refresh every two minutes.

Flight plan parsing failed; only flown route is shown


Map Options




Map Legend


Flown Route
Filed Route
Departure Airport
Arrival Airport
Navaid (VOR, NDB)
Fix

Horizontal Profiles

Position Reports

Time Latitude Longitude Heading Altitude Ground
Speed
04-Jul-20 13:55 33.403250 -118.415459 328 1605ft 0kts
04-Jul-20 13:56 33.403250 -118.415459 328 1605ft 0kts
04-Jul-20 13:57 33.403250 -118.415459 328 1605ft 0kts
04-Jul-20 13:58 33.403250 -118.415459 328 1605ft 0kts
04-Jul-20 13:59 33.403250 -118.415459 328 1605ft 0kts
04-Jul-20 14:00 33.403250 -118.415459 328 1605ft 0kts
04-Jul-20 14:01 33.403250 -118.415459 328 1605ft 0kts
04-Jul-20 14:02 33.403250 -118.415459 328 1605ft 0kts
04-Jul-20 14:03 33.403250 -118.415459 328 1605ft 0kts
04-Jul-20 14:04 33.403250 -118.415459 328 1605ft 0kts
04-Jul-20 14:05 33.403250 -118.415459 328 1605ft 0kts
04-Jul-20 14:06 33.403250 -118.415459 328 1605ft 0kts
04-Jul-20 14:07 33.403250 -118.415459 328 1605ft 0kts
04-Jul-20 14:08 33.403250 -118.415459 328 1605ft 0kts
04-Jul-20 14:09 33.403250 -118.415459 328 1605ft 0kts
04-Jul-20 14:10 33.403250 -118.415459 328 1605ft 0kts
04-Jul-20 14:11 33.403250 -118.415459 328 1605ft 0kts
04-Jul-20 14:12 33.403250 -118.415459 328 1605ft 0kts
04-Jul-20 14:13 33.403250 -118.415459 328 1605ft 0kts
04-Jul-20 14:14 33.403250 -118.415459 328 1605ft 0kts
04-Jul-20 14:15 33.403250 -118.415459 328 1605ft 0kts
04-Jul-20 14:16 33.403250 -118.415459 328 1605ft 0kts
04-Jul-20 14:17 33.403436 -118.415508 30 1605ft 2kts
04-Jul-20 14:18 33.404819 -118.415053 14 1605ft 7kts
04-Jul-20 14:19 33.406457 -118.412631 56 1605ft 10kts
04-Jul-20 14:20 33.407143 -118.411469 53 1605ft 0kts
04-Jul-20 14:21 33.407143 -118.411470 53 1605ft 0kts
04-Jul-20 14:22 33.407143 -118.411470 53 1605ft 0kts
04-Jul-20 14:23 33.407423 -118.411608 270 1605ft 3kts
04-Jul-20 14:24 33.398055 -118.427335 234 1877ft 91kts
04-Jul-20 14:25 33.382487 -118.450863 239 2679ft 89kts
04-Jul-20 14:26 33.397982 -118.468894 16 3367ft 101kts
04-Jul-20 14:27 33.420061 -118.451286 348 4033ft 100kts
04-Jul-20 14:29 33.447994 -118.460957 326 4645ft 106kts
04-Jul-20 14:30 33.471917 -118.482191 318 5243ft 107kts
04-Jul-20 14:31 33.495036 -118.504918 318 5842ft 106kts
04-Jul-20 14:32 33.517711 -118.527366 318 6438ft 104kts
04-Jul-20 14:33 33.539963 -118.549418 318 7015ft 104kts
04-Jul-20 14:34 33.561987 -118.571256 318 7500ft 106kts
04-Jul-20 14:35 33.584066 -118.593158 318 7986ft 105kts
04-Jul-20 14:36 33.606712 -118.614152 322 8401ft 108kts
04-Jul-20 14:37 33.630842 -118.634900 322 8789ft 110kts
04-Jul-20 14:38 33.654593 -118.655298 322 9171ft 110kts
04-Jul-20 14:39 33.678992 -118.676269 322 9564ft 109kts
04-Jul-20 14:40 33.703601 -118.697428 322 9964ft 108kts
04-Jul-20 14:41 33.728141 -118.718544 322 10363ft 108kts
04-Jul-20 14:42 33.753397 -118.740172 322 10671ft 113kts
04-Jul-20 14:43 33.779298 -118.762220 321 10976ft 114kts
04-Jul-20 14:44 33.805190 -118.784327 321 11278ft 114kts
04-Jul-20 14:45 33.831099 -118.806453 321 11583ft 113kts
04-Jul-20 14:46 33.856684 -118.828290 320 11884ft 113kts
04-Jul-20 14:47 33.881795 -118.849734 320 12183ft 112kts
04-Jul-20 14:47 33.902706 -118.867611 320 12404ft 114kts
04-Jul-20 14:49 33.933359 -118.893843 320 12504ft 125kts
04-Jul-20 14:50 33.961222 -118.917660 320 12503ft 129kts
04-Jul-20 14:50 33.984829 -118.937868 320 12502ft 129kts
04-Jul-20 14:52 34.018101 -118.966388 320 12477ft 130kts
04-Jul-20 14:52 34.041732 -118.986657 320 12505ft 129kts
04-Jul-20 14:53 34.070028 -119.010950 320 12529ft 128kts
04-Jul-20 14:54 34.098336 -119.035287 320 12505ft 130kts
04-Jul-20 14:55 34.130538 -119.036229 24 12284ft 146kts
04-Jul-20 14:56 34.166106 -119.013745 28 11892ft 149kts
04-Jul-20 14:57 34.201529 -118.989503 29 11496ft 148kts
04-Jul-20 14:58 34.235473 -118.965953 29 11501ft 136kts
04-Jul-20 14:59 34.267892 -118.943387 29 11502ft 134kts
04-Jul-20 15:00 34.300193 -118.920875 29 11502ft 134kts
04-Jul-20 15:01 34.332479 -118.898350 29 11502ft 134kts
04-Jul-20 15:02 34.367442 -118.882042 3 11316ft 143kts
04-Jul-20 15:03 34.408276 -118.879318 1 10912ft 147kts
04-Jul-20 15:04 34.449298 -118.877319 0 10509ft 147kts
04-Jul-20 15:05 34.488153 -118.875570 0 10506ft 135kts
04-Jul-20 15:06 34.525800 -118.873899 0 10506ft 134kts
04-Jul-20 15:07 34.563170 -118.872240 0 10506ft 134kts
04-Jul-20 15:08 34.600530 -118.870579 0 10506ft 135kts
04-Jul-20 15:09 34.638089 -118.868907 0 10506ft 135kts
04-Jul-20 15:10 34.675331 -118.867227 0 10509ft 135kts
04-Jul-20 15:11 34.712107 -118.865610 1 10505ft 134kts
04-Jul-20 15:12 34.749695 -118.863932 0 10506ft 134kts
04-Jul-20 15:13 34.787245 -118.862244 0 10506ft 134kts
04-Jul-20 15:14 34.823893 -118.868782 343 10507ft 134kts
04-Jul-20 15:15 34.859929 -118.880821 342 10509ft 134kts
04-Jul-20 15:16 34.895905 -118.893135 342 10507ft 134kts
04-Jul-20 15:17 34.931716 -118.905474 342 10507ft 133kts
04-Jul-20 15:18 34.967186 -118.917680 343 10506ft 132kts
04-Jul-20 15:19 35.002554 -118.929736 343 10506ft 132kts
04-Jul-20 15:20 35.037719 -118.941713 343 10503ft 131kts
04-Jul-20 15:21 35.073592 -118.954132 343 10268ft 135kts
04-Jul-20 15:22 35.108275 -118.966178 343 9891ft 129kts
04-Jul-20 15:23 35.142742 -118.978225 342 9601ft 136kts
04-Jul-20 15:24 35.178881 -118.990849 342 9268ft 136kts
04-Jul-20 15:25 35.213460 -119.002874 342 8874ft 130kts
04-Jul-20 15:26 35.247360 -119.014695 342 8507ft 140kts
04-Jul-20 15:27 35.282610 -119.026963 342 8131ft 140kts
04-Jul-20 15:28 35.317001 -119.038933 342 7766ft 139kts
04-Jul-20 15:29 35.352077 -119.051156 342 7391ft 139kts
04-Jul-20 15:30 35.388228 -119.063762 342 7001ft 138kts
04-Jul-20 15:31 35.425111 -119.076635 343 6601ft 137kts
04-Jul-20 15:32 35.461383 -119.089307 343 6205ft 137kts
04-Jul-20 15:33 35.497853 -119.094174 4 5811ft 138kts
04-Jul-20 15:34 35.535281 -119.088211 6 5423ft 137kts
04-Jul-20 15:35 35.572390 -119.081714 5 5030ft 137kts
04-Jul-20 15:36 35.609415 -119.075136 7 4631ft 137kts
04-Jul-20 15:37 35.647092 -119.068397 7 4232ft 138kts
04-Jul-20 15:38 35.684795 -119.061685 7 3834ft 138kts
04-Jul-20 15:39 35.722317 -119.054970 7 3439ft 137kts
04-Jul-20 15:40 35.759815 -119.048333 7 3064ft 136kts
04-Jul-20 15:41 35.796349 -119.041739 7 2755ft 134kts
04-Jul-20 15:42 35.830178 -119.035701 7 2437ft 123kts
04-Jul-20 15:43 35.857452 -119.030780 7 2205ft 89kts
04-Jul-20 15:44 35.878827 -119.026965 7 1965ft 72kts
04-Jul-20 15:45 35.899630 -119.023287 7 1779ft 80kts
04-Jul-20 15:46 35.921363 -119.023825 355 1581ft 82kts
04-Jul-20 15:47 35.943617 -119.024941 357 1389ft 82kts
04-Jul-20 15:48 35.966101 -119.025982 358 1201ft 83kts
04-Jul-20 15:49 35.988457 -119.027037 356 1019ft 83kts
04-Jul-20 15:50 36.008257 -119.036773 320 886ft 81kts
04-Jul-20 15:51 36.023804 -119.055716 315 505ft 82kts
04-Jul-20 15:52 36.031372 -119.064745 17 445ft 0kts
04-Jul-20 15:53 36.031512 -119.063347 90 445ft 8kts
04-Jul-20 15:54 36.029735 -119.060501 132 445ft 7kts
04-Jul-20 15:55 36.029579 -119.059442 133 445ft 0kts
04-Jul-20 15:56 36.029579 -119.059442 133 445ft 0kts
04-Jul-20 15:57 36.029579 -119.059443 133 445ft 0kts
04-Jul-20 15:58 36.029579 -119.059443 133 445ft 0kts
04-Jul-20 15:59 36.029579 -119.059443 133 445ft 0kts
04-Jul-20 16:00 36.029579 -119.059443 133 445ft 0kts

Navigation Log

Ident Type
Flight plan parsing failed, navigation log unavailable